Time;durP1;ratioP1;P1;durP2;ratioP2;P2;SDS_P1;SDS_P2;PMS_P1;PMS_P2;Temp;Humidity;BMP_temperature;BMP_pressure;BME280_temperature;BME280_humidity;BME280_pressure;Samples;Min_cycle;Max_cycle;Signal;HPM_P1;HPM_P2
2022/10/16 00:00:22;;;;;;;3.00;1.55;;;;;;;;;;1035197;28;20033;-81
2022/10/16 00:00:53;;;;;;;1.95;1.30;;;;;;;;;;1035065;28;20028;-81
2022/10/16 00:01:25;;;;;;;3.40;1.20;;;;;;;;;;1033806;28;20481;-81
2022/10/16 00:01:56;;;;;;;2.90;1.67;;;;;;;;;;1031459;28;20577;-81
2022/10/16 00:02:27;;;;;;;3.78;1.63;;;;;;;;;;1036622;28;20580;-81
2022/10/16 00:02:58;;;;;;;2.80;1.55;;;;;;;;;;1042648;28;20684;-81
2022/10/16 00:03:28;;;;;;;5.45;1.58;;;;;;;;;;1038887;28;20025;-81
2022/10/16 00:04:00;;;;;;;3.97;1.30;;;;;;;;;;1039461;28;20022;-81
2022/10/16 00:04:31;;;;;;;3.40;1.42;;;;;;;;;;1039152;28;20048;-82
2022/10/16 00:05:02;;;;;;;2.03;1.55;;;;;;;;;;1038823;28;20021;-81
2022/10/16 00:05:33;;;;;;;3.47;1.75;;;;;;;;;;1039080;28;20032;-81
2022/10/16 00:06:05;;;;;;;6.80;2.30;;;;;;;;;;1038610;28;20022;-81
2022/10/16 00:06:36;;;;;;;3.70;1.30;;;;;;;;;;1043112;28;20008;-81
2022/10/16 00:07:07;;;;;;;5.53;1.85;;;;;;;;;;1038763;28;20029;-81
2022/10/16 00:07:38;;;;;;;4.67;1.70;;;;;;;;;;1038842;28;20083;-82
2022/10/16 00:08:10;;;;;;;1.80;1.20;;;;;;;;;;1032240;28;20265;-82
2022/10/16 00:08:41;;;;;;;2.30;1.35;;;;;;;;;;1031081;28;20277;-81
2022/10/16 00:09:12;;;;;;;2.80;1.33;;;;;;;;;;1035406;28;20022;-81
2022/10/16 00:09:43;;;;;;;5.78;2.03;;;;;;;;;;1036388;28;20026;-82
2022/10/16 00:10:14;;;;;;;3.40;1.70;;;;;;;;;;1043054;28;20036;-81
2022/10/16 00:10:45;;;;;;;3.00;1.50;;;;;;;;;;1042941;28;20025;-81
2022/10/16 00:11:18;;;;;;;4.72;1.52;;;;;;;;;;1043058;28;20025;-80
2022/10/16 00:11:49;;;;;;;3.33;1.80;;;;;;;;;;1035427;28;20061;-81
2022/10/16 00:12:20;;;;;;;3.75;1.70;;;;;;;;;;1034950;28;20458;-82
2022/10/16 00:12:51;;;;;;;3.47;1.63;;;;;;;;;;1036851;28;20394;-81
2022/10/16 00:13:22;;;;;;;4.93;2.00;;;;;;;;;;1038440;28;20060;-81
2022/10/16 00:13:55;;;;;;;2.72;1.42;;;;;;;;;;1038969;28;20104;-82
2022/10/16 00:14:26;;;;;;;2.42;1.52;;;;;;;;;;1038815;28;20029;-81
2022/10/16 00:14:57;;;;;;;4.82;1.95;;;;;;;;;;1034724;28;20129;-81
2022/10/16 00:15:28;;;;;;;2.72;1.55;;;;;;;;;;1035357;28;20120;-82
2022/10/16 00:16:00;;;;;;;3.33;1.88;;;;;;;;;;1038890;28;20420;-82
2022/10/16 00:16:31;;;;;;;2.53;1.50;;;;;;;;;;1036189;28;20022;-81
2022/10/16 00:17:02;;;;;;;2.45;1.48;;;;;;;;;;1039374;28;20047;-81
2022/10/16 00:17:33;;;;;;;2.33;1.30;;;;;;;;;;1038672;28;20582;-82
2022/10/16 00:18:05;;;;;;;6.20;1.90;;;;;;;;;;1038861;28;20026;-82
2022/10/16 00:18:37;;;;;;;2.60;1.27;;;;;;;;;;1037192;28;20701;-81
2022/10/16 00:19:08;;;;;;;4.93;1.60;;;;;;;;;;1031277;28;20018;-82
2022/10/16 00:19:38;;;;;;;3.65;1.63;;;;;;;;;;1030463;28;20015;-82
2022/10/16 00:20:09;;;;;;;2.63;1.40;;;;;;;;;;1037006;28;20064;-82
2022/10/16 00:20:41;;;;;;;3.25;1.80;;;;;;;;;;1038269;28;20036;-81
2022/10/16 00:21:13;;;;;;;4.47;1.42;;;;;;;;;;1035901;28;20030;-82
2022/10/16 00:21:44;;;;;;;2.35;1.40;;;;;;;;;;1041084;28;20029;-82
2022/10/16 00:22:15;;;;;;;2.97;2.13;;;;;;;;;;1042679;28;20045;-81
2022/10/16 00:22:46;;;;;;;3.75;1.77;;;;;;;;;;1038834;28;20456;-82
2022/10/16 00:23:17;;;;;;;1.65;0.85;;;;;;;;;;1038509;28;20067;-80
2022/10/16 00:23:51;;;;;;;2.53;1.85;;;;;;;;;;1034094;28;20018;-82
2022/10/16 00:24:22;;;;;;;4.13;1.65;;;;;;;;;;1035928;28;20014;-81
2022/10/16 00:24:53;;;;;;;2.17;1.52;;;;;;;;;;1038409;28;20029;-82
2022/10/16 00:25:24;;;;;;;3.05;1.52;;;;;;;;;;1042815;28;20028;-81
2022/10/16 00:25:56;;;;;;;3.88;1.30;;;;;;;;;;1042832;28;20059;-81
2022/10/16 00:26:27;;;;;;;3.22;2.00;;;;;;;;;;1042871;28;20009;-81
2022/10/16 00:26:58;;;;;;;6.22;1.83;;;;;;;;;;1043348;28;20013;-81
2022/10/16 00:27:29;;;;;;;4.43;1.98;;;;;;;;;;1042676;28;20088;-81
2022/10/16 00:28:01;;;;;;;2.65;1.80;;;;;;;;;;1042561;28;20021;-82
2022/10/16 00:28:32;;;;;;;3.55;1.48;;;;;;;;;;1042382;28;20013;-81
2022/10/16 00:29:03;;;;;;;3.95;1.67;;;;;;;;;;1038362;28;20660;-81
2022/10/16 00:29:34;;;;;;;2.95;1.33;;;;;;;;;;1039064;28;20020;-81
2022/10/16 00:30:08;;;;;;;2.78;1.73;;;;;;;;;;1034149;28;20018;-81
2022/10/16 00:30:39;;;;;;;2.50;2.22;;;;;;;;;;1035316;28;20034;-81
2022/10/16 00:31:11;;;;;;;2.75;1.60;;;;;;;;;;1038338;28;20028;-81
2022/10/16 00:31:42;;;;;;;3.38;2.03;;;;;;;;;;1035132;28;20068;-80
2022/10/16 00:32:13;;;;;;;4.15;1.50;;;;;;;;;;1039713;28;20428;-81
2022/10/16 00:32:44;;;;;;;3.20;1.38;;;;;;;;;;1038463;28;20014;-81
2022/10/16 00:33:15;;;;;;;5.30;1.85;;;;;;;;;;1034717;28;20026;-81
2022/10/16 00:33:46;;;;;;;4.15;1.80;;;;;;;;;;1038381;28;20017;-82
2022/10/16 00:34:17;;;;;;;2.97;1.50;;;;;;;;;;1034694;28;20034;-81
2022/10/16 00:34:47;;;;;;;2.92;1.70;;;;;;;;;;1039814;28;20368;-82
2022/10/16 00:35:18;;;;;;;3.38;1.40;;;;;;;;;;1042651;28;20027;-82
2022/10/16 00:35:50;;;;;;;5.72;1.70;;;;;;;;;;1042674;28;20023;-81
2022/10/16 00:36:22;;;;;;;3.33;1.45;;;;;;;;;;1039362;28;20025;-81
2022/10/16 00:36:53;;;;;;;2.45;1.17;;;;;;;;;;1038635;28;20639;-81
2022/10/16 00:37:24;;;;;;;2.10;1.30;;;;;;;;;;1034830;28;20605;-81
2022/10/16 00:37:55;;;;;;;2.42;1.75;;;;;;;;;;1034977;28;20129;-81
2022/10/16 00:38:26;;;;;;;4.55;1.70;;;;;;;;;;1034961;28;20026;-81
2022/10/16 00:38:59;;;;;;;3.10;1.45;;;;;;;;;;1035102;28;20014;-81
2022/10/16 00:39:30;;;;;;;4.10;1.80;;;;;;;;;;1035475;28;20036;-79
2022/10/16 00:40:01;;;;;;;5.78;1.83;;;;;;;;;;1035357;28;20053;-80
2022/10/16 00:40:32;;;;;;;6.38;1.88;;;;;;;;;;1037571;28;20021;-81
2022/10/16 00:41:03;;;;;;;2.42;1.70;;;;;;;;;;1034640;28;20477;-81
2022/10/16 00:41:34;;;;;;;2.83;1.60;;;;;;;;;;1035130;28;20026;-82
2022/10/16 00:42:05;;;;;;;2.25;1.15;;;;;;;;;;1035085;28;20037;-79
2022/10/16 00:42:36;;;;;;;3.08;1.50;;;;;;;;;;1035360;28;20237;-80
2022/10/16 00:43:26;;;;;;;2.30;1.42;;;;;;;;;;1038785;28;20124;-81
2022/10/16 00:43:58;;;;;;;3.83;1.55;;;;;;;;;;1034701;28;20030;-81
2022/10/16 00:44:56;;;;;;;2.03;1.40;;;;;;;;;;1030647;28;20054;-81
2022/10/16 00:45:27;;;;;;;2.53;1.75;;;;;;;;;;1032057;28;20030;-81
2022/10/16 00:45:58;;;;;;;4.00;2.05;;;;;;;;;;1034756;28;20034;-81
2022/10/16 00:46:30;;;;;;;2.60;1.40;;;;;;;;;;1038927;28;20053;-81
2022/10/16 00:47:01;;;;;;;2.22;1.35;;;;;;;;;;1038958;28;20625;-82
2022/10/16 00:47:37;;;;;;;3.60;1.30;;;;;;;;;;1039929;28;20028;-81
2022/10/16 00:48:11;;;;;;;4.80;1.33;;;;;;;;;;1038625;28;20591;-81
2022/10/16 00:48:45;;;;;;;3.17;2.03;;;;;;;;;;1033155;28;20030;-81
2022/10/16 00:49:19;;;;;;;2.42;1.60;;;;;;;;;;1036576;28;20512;-81
2022/10/16 00:49:52;;;;;;;3.22;1.38;;;;;;;;;;1038641;28;20079;-82
2022/10/16 00:50:31;;;;;;;3.28;1.27;;;;;;;;;;1034825;28;20037;-81
2022/10/16 00:51:02;;;;;;;2.05;1.23;;;;;;;;;;1036411;28;20045;-80
2022/10/16 00:51:35;;;;;;;3.28;1.67;;;;;;;;;;1034746;28;20040;-81
2022/10/16 00:52:06;;;;;;;2.03;1.30;;;;;;;;;;1034695;28;20029;-80
2022/10/16 00:52:37;;;;;;;3.47;1.38;;;;;;;;;;1040374;28;20040;-81
2022/10/16 00:53:08;;;;;;;5.45;1.92;;;;;;;;;;1042848;28;20033;-81
2022/10/16 00:53:39;;;;;;;2.55;1.45;;;;;;;;;;1043357;28;20036;-81
2022/10/16 00:54:13;;;;;;;4.90;1.75;;;;;;;;;;1039428;28;20369;-81
2022/10/16 00:54:46;;;;;;;2.63;1.38;;;;;;;;;;1034945;28;20061;-82
2022/10/16 00:55:17;;;;;;;4.40;1.83;;;;;;;;;;1035305;28;20026;-82
2022/10/16 00:55:48;;;;;;;2.92;1.85;;;;;;;;;;1035537;28;20026;-82
2022/10/16 00:56:19;;;;;;;6.68;2.42;;;;;;;;;;1041831;28;20029;-81
2022/10/16 00:56:50;;;;;;;2.45;1.55;;;;;;;;;;1038757;28;20059;-82
2022/10/16 00:57:21;;;;;;;2.80;1.50;;;;;;;;;;1038686;28;20075;-81
2022/10/16 00:57:52;;;;;;;6.25;2.17;;;;;;;;;;1039505;28;20029;-81
2022/10/16 00:58:23;;;;;;;3.30;1.65;;;;;;;;;;1034648;28;20038;-81
2022/10/16 00:58:54;;;;;;;1.85;1.17;;;;;;;;;;1035096;28;20026;-81
2022/10/16 00:59:29;;;;;;;4.50;1.73;;;;;;;;;;1034695;28;20145;-81
2022/10/16 01:00:00;;;;;;;3.53;1.17;;;;;;;;;;1031993;28;20034;-81
2022/10/16 01:00:31;;;;;;;2.92;1.23;;;;;;;;;;1030755;28;20030;-80
2022/10/16 01:01:02;;;;;;;3.75;1.60;;;;;;;;;;1034984;28;20032;-79
2022/10/16 01:01:33;;;;;;;4.00;1.60;;;;;;;;;;1039164;28;20022;-81
2022/10/16 01:02:05;;;;;;;5.93;1.75;;;;;;;;;;1043082;28;20488;-81
2022/10/16 01:02:37;;;;;;;3.30;1.55;;;;;;;;;;1043549;28;20021;-81
2022/10/16 01:03:32;;;;;;;2.65;1.52;;;;;;;;;;1043357;28;20110;-81
2022/10/16 01:04:03;;;;;;;2.55;1.20;;;;;;;;;;1042080;28;20032;-82
2022/10/16 01:04:52;;;;;;;2.38;1.40;;;;;;;;;;1035552;28;20054;-82
2022/10/16 01:05:23;;;;;;;2.45;1.50;;;;;;;;;;1039499;28;20102;-81
2022/10/16 01:06:07;;;;;;;3.55;1.25;;;;;;;;;;1034486;28;20128;-81
2022/10/16 01:06:58;;;;;;;2.28;1.52;;;;;;;;;;1039006;28;20051;-81
2022/10/16 01:07:56;;;;;;;3.25;1.88;;;;;;;;;;1026353;28;20041;-81
2022/10/16 01:08:34;;;;;;;2.30;1.17;;;;;;;;;;1032365;28;20047;-81
2022/10/16 01:09:08;;;;;;;2.17;1.10;;;;;;;;;;1038785;28;20034;-82
2022/10/16 01:09:51;;;;;;;1.58;1.15;;;;;;;;;;1038854;28;20052;-81
2022/10/16 01:10:33;;;;;;;2.92;1.63;;;;;;;;;;1039743;28;20084;-80
2022/10/16 01:11:11;;;;;;;2.53;1.27;;;;;;;;;;1038777;28;20116;-82
2022/10/16 01:11:45;;;;;;;4.82;1.98;;;;;;;;;;1042472;28;20051;-80
2022/10/16 01:12:22;;;;;;;3.72;1.50;;;;;;;;;;1042830;28;20131;-81
2022/10/16 01:13:06;;;;;;;1.48;1.15;;;;;;;;;;1043658;28;20033;-81
2022/10/16 01:13:41;;;;;;;2.38;1.50;;;;;;;;;;1042661;28;20024;-81
2022/10/16 01:14:18;;;;;;;5.32;1.83;;;;;;;;;;1042813;28;20036;-81
2022/10/16 01:14:52;;;;;;;2.60;1.52;;;;;;;;;;1043003;28;20021;-81
2022/10/16 01:15:23;;;;;;;5.45;1.63;;;;;;;;;;1043930;28;20112;-81
2022/10/16 01:16:06;;;;;;;3.92;1.45;;;;;;;;;;1042887;28;20017;-81
2022/10/16 01:16:40;;;;;;;2.05;1.50;;;;;;;;;;1040826;28;20668;-82
2022/10/16 01:17:18;;;;;;;5.63;1.75;;;;;;;;;;1034603;28;20428;-82
2022/10/16 01:17:52;;;;;;;4.72;1.80;;;;;;;;;;1033886;28;20046;-81
2022/10/16 01:18:29;;;;;;;2.78;1.40;;;;;;;;;;1032970;28;20030;-82
2022/10/16 01:19:12;;;;;;;4.53;1.50;;;;;;;;;;1037243;28;20030;-81
2022/10/16 01:19:46;;;;;;;3.53;1.60;;;;;;;;;;1035415;28;20029;-81
2022/10/16 01:20:23;;;;;;;2.47;1.48;;;;;;;;;;1035027;28;20832;-81
2022/10/16 01:20:56;;;;;;;1.95;1.23;;;;;;;;;;1039162;28;20041;-81
2022/10/16 01:21:33;;;;;;;3.95;1.70;;;;;;;;;;1038596;28;20060;-80
2022/10/16 01:22:05;;;;;;;3.80;1.58;;;;;;;;;;1034938;28;20149;-81
2022/10/16 01:22:45;;;;;;;4.57;1.92;;;;;;;;;;1037237;28;20570;-82
2022/10/16 01:23:25;;;;;;;1.98;1.52;;;;;;;;;;1039765;28;20500;-81
2022/10/16 01:23:59;;;;;;;3.65;1.52;;;;;;;;;;1038922;28;20063;-81
2022/10/16 01:24:39;;;;;;;2.88;1.27;;;;;;;;;;1038799;28;20030;-82
2022/10/16 01:25:14;;;;;;;3.70;1.63;;;;;;;;;;1038554;28;20029;-82
2022/10/16 01:26:00;;;;;;;2.45;1.50;;;;;;;;;;1039352;28;20391;-81
2022/10/16 01:26:50;;;;;;;4.80;2.00;;;;;;;;;;1038633;28;20033;-81
2022/10/16 01:27:24;;;;;;;2.58;1.40;;;;;;;;;;1038596;28;20064;-82
2022/10/16 01:27:55;;;;;;;3.35;1.63;;;;;;;;;;1038711;28;20100;-81
2022/10/16 01:28:29;;;;;;;3.05;1.60;;;;;;;;;;1035175;28;20020;-80
2022/10/16 01:29:04;;;;;;;5.85;1.50;;;;;;;;;;1031295;28;20027;-80
2022/10/16 01:29:35;;;;;;;2.00;1.35;;;;;;;;;;1030547;28;20457;-80
2022/10/16 01:30:21;;;;;;;2.70;1.42;;;;;;;;;;1032282;28;20129;-79
2022/10/16 01:30:54;;;;;;;3.42;1.52;;;;;;;;;;1032164;28;20030;-80
2022/10/16 01:31:28;;;;;;;3.03;1.52;;;;;;;;;;1036965;28;20148;-80
2022/10/16 01:32:05;;;;;;;4.60;1.90;;;;;;;;;;1038534;28;20021;-79
2022/10/16 01:32:46;;;;;;;2.17;1.65;;;;;;;;;;1038819;28;20064;-80
2022/10/16 01:33:21;;;;;;;2.97;1.67;;;;;;;;;;1038478;28;20025;-80
2022/10/16 01:34:04;;;;;;;2.90;1.48;;;;;;;;;;1038693;28;20021;-81
2022/10/16 01:34:37;;;;;;;2.13;1.50;;;;;;;;;;1034708;28;20029;-81
2022/10/16 01:35:08;;;;;;;2.80;1.60;;;;;;;;;;1034846;28;20058;-81
2022/10/16 01:35:41;;;;;;;1.95;1.35;;;;;;;;;;1036096;28;20038;-81
2022/10/16 01:36:17;;;;;;;4.43;2.40;;;;;;;;;;1043790;28;20066;-81
2022/10/16 01:36:54;;;;;;;5.30;1.70;;;;;;;;;;1039535;28;20613;-80
2022/10/16 01:37:48;;;;;;;3.25;1.50;;;;;;;;;;1038337;28;20037;-80
2022/10/16 01:38:35;;;;;;;2.92;1.70;;;;;;;;;;1035041;28;20057;-78
2022/10/16 01:39:07;;;;;;;4.43;2.35;;;;;;;;;;1038624;28;20029;-81
2022/10/16 01:39:40;;;;;;;3.60;1.80;;;;;;;;;;1034482;28;20135;-81
2022/10/16 01:40:12;;;;;;;4.22;1.60;;;;;;;;;;1037295;28;20104;-79
2022/10/16 01:40:46;;;;;;;5.38;1.50;;;;;;;;;;1038630;28;20100;-80
2022/10/16 01:41:20;;;;;;;2.53;1.55;;;;;;;;;;1040323;28;20025;-81
2022/10/16 01:41:59;;;;;;;2.20;1.40;;;;;;;;;;1037598;28;20034;-81
2022/10/16 01:42:35;;;;;;;2.55;1.42;;;;;;;;;;1038624;28;20112;-80
2022/10/16 01:43:09;;;;;;;3.22;1.55;;;;;;;;;;1038537;28;20032;-81
2022/10/16 01:43:43;;;;;;;3.03;1.77;;;;;;;;;;1039628;28;20013;-81
2022/10/16 01:44:18;;;;;;;2.67;1.58;;;;;;;;;;1042112;28;20032;-81
2022/10/16 01:44:50;;;;;;;5.50;2.03;;;;;;;;;;1040170;28;20009;-81
2022/10/16 01:45:21;;;;;;;2.30;1.58;;;;;;;;;;1039624;28;20018;-80
2022/10/16 01:45:53;;;;;;;2.90;1.60;;;;;;;;;;1034318;28;20014;-80
2022/10/16 01:46:25;;;;;;;2.35;1.98;;;;;;;;;;1036341;28;20010;-81
2022/10/16 01:46:56;;;;;;;3.70;2.15;;;;;;;;;;1036618;28;20090;-80
2022/10/16 01:47:27;;;;;;;3.38;1.50;;;;;;;;;;1034591;28;20017;-81
2022/10/16 01:48:00;;;;;;;3.42;1.60;;;;;;;;;;1035044;28;20385;-81
2022/10/16 01:48:32;;;;;;;3.33;1.30;;;;;;;;;;1037849;28;20017;-81
2022/10/16 01:49:03;;;;;;;1.77;1.20;;;;;;;;;;1038953;28;20067;-81
2022/10/16 01:49:35;;;;;;;2.80;1.50;;;;;;;;;;1038954;28;20018;-81
2022/10/16 01:50:08;;;;;;;2.38;1.20;;;;;;;;;;1038248;28;20014;-82
2022/10/16 01:50:40;;;;;;;3.33;1.83;;;;;;;;;;1038769;28;20021;-81
2022/10/16 01:51:15;;;;;;;1.75;1.30;;;;;;;;;;1035146;28;20022;-82
2022/10/16 01:51:49;;;;;;;3.67;1.60;;;;;;;;;;1031493;28;20525;-80
2022/10/16 01:52:22;;;;;;;2.30;1.50;;;;;;;;;;1030382;28;20097;-81
2022/10/16 01:52:54;;;;;;;5.82;1.70;;;;;;;;;;1031981;28;20025;-80
2022/10/16 01:53:26;;;;;;;3.80;1.80;;;;;;;;;;1031473;28;20019;-81
2022/10/16 01:53:58;;;;;;;2.78;1.60;;;;;;;;;;1032390;28;20018;-81
2022/10/16 01:54:31;;;;;;;2.50;1.60;;;;;;;;;;1033560;28;20137;-80
2022/10/16 01:55:04;;;;;;;3.65;1.92;;;;;;;;;;1031053;28;20015;-80
2022/10/16 01:55:38;;;;;;;2.55;1.80;;;;;;;;;;1035479;28;20014;-81
2022/10/16 01:56:10;;;;;;;3.25;1.60;;;;;;;;;;1034525;28;20416;-80
2022/10/16 01:56:42;;;;;;;1.73;1.40;;;;;;;;;;1035421;28;20369;-80
2022/10/16 01:57:13;;;;;;;2.88;1.58;;;;;;;;;;1037193;28;20083;-81
2022/10/16 01:57:46;;;;;;;3.67;1.63;;;;;;;;;;1038422;28;20576;-80
2022/10/16 01:58:17;;;;;;;2.65;1.42;;;;;;;;;;1038454;28;20026;-80
2022/10/16 01:59:14;;;;;;;2.25;1.55;;;;;;;;;;1039201;28;20021;-79
2022/10/16 01:59:49;;;;;;;4.13;1.40;;;;;;;;;;1034735;28;20045;-80
2022/10/16 02:00:21;;;;;;;4.18;1.75;;;;;;;;;;1039022;28;20067;-79
2022/10/16 02:00:52;;;;;;;2.67;1.52;;;;;;;;;;1038575;28;20020;-79
2022/10/16 02:01:25;;;;;;;3.25;1.42;;;;;;;;;;1034128;28;20134;-80
2022/10/16 02:01:59;;;;;;;2.70;1.95;;;;;;;;;;1030471;28;20097;-79
2022/10/16 02:02:31;;;;;;;1.95;1.05;;;;;;;;;;1035436;28;20041;-79
2022/10/16 02:03:03;;;;;;;3.35;1.63;;;;;;;;;;1035506;28;20083;-80
2022/10/16 02:03:34;;;;;;;2.72;1.85;;;;;;;;;;1034445;28;20029;-78
2022/10/16 02:04:09;;;;;;;3.67;1.67;;;;;;;;;;1031017;28;20502;-79
2022/10/16 02:04:45;;;;;;;2.50;1.80;;;;;;;;;;1031573;28;20027;-80
2022/10/16 02:05:24;;;;;;;3.10;1.20;;;;;;;;;;1034533;28;20125;-80
2022/10/16 02:05:57;;;;;;;4.93;2.00;;;;;;;;;;1036867;28;20475;-79
2022/10/16 02:06:29;;;;;;;8.95;1.95;;;;;;;;;;1039380;28;20022;-78
2022/10/16 02:07:00;;;;;;;2.78;1.58;;;;;;;;;;1038664;28;20014;-80
2022/10/16 02:07:31;;;;;;;4.50;1.30;;;;;;;;;;1041865;28;20028;-79
2022/10/16 02:08:02;;;;;;;2.63;1.60;;;;;;;;;;1042996;28;20076;-80
2022/10/16 02:08:35;;;;;;;2.00;1.45;;;;;;;;;;1043072;28;20040;-79
2022/10/16 02:09:06;;;;;;;1.65;0.98;;;;;;;;;;1043079;28;20024;-79
2022/10/16 02:09:37;;;;;;;1.95;1.05;;;;;;;;;;1043104;28;20017;-79
2022/10/16 02:10:09;;;;;;;3.53;1.60;;;;;;;;;;1042650;28;20028;-79
2022/10/16 02:10:40;;;;;;;2.88;1.60;;;;;;;;;;1042686;28;20032;-79
2022/10/16 02:11:11;;;;;;;7.30;1.70;;;;;;;;;;1040494;28;20021;-80
2022/10/16 02:11:43;;;;;;;3.85;1.73;;;;;;;;;;1039197;28;20048;-79
2022/10/16 02:12:24;;;;;;;3.05;1.80;;;;;;;;;;1038854;28;20785;-79
2022/10/16 02:12:58;;;;;;;1.08;1.02;;;;;;;;;;1038989;28;20021;-79
2022/10/16 02:13:34;;;;;;;1.90;1.42;;;;;;;;;;1038509;28;20037;-80
2022/10/16 02:14:06;;;;;;;2.42;1.63;;;;;;;;;;1038764;28;20025;-79
2022/10/16 02:14:38;;;;;;;4.55;2.33;;;;;;;;;;1039469;28;20026;-80
2022/10/16 02:15:09;;;;;;;3.05;1.40;;;;;;;;;;1038886;28;20021;-79
2022/10/16 02:15:40;;;;;;;4.72;1.63;;;;;;;;;;1039164;28;20029;-79
2022/10/16 02:16:13;;;;;;;2.97;1.55;;;;;;;;;;1042410;28;20052;-79
2022/10/16 02:16:45;;;;;;;6.03;2.00;;;;;;;;;;1040337;28;20041;-79
2022/10/16 02:17:17;;;;;;;2.95;2.00;;;;;;;;;;1038649;28;20021;-79
2022/10/16 02:17:48;;;;;;;2.17;1.70;;;;;;;;;;1038080;28;20022;-79
2022/10/16 02:18:19;;;;;;;2.30;1.60;;;;;;;;;;1034965;28;20026;-80
2022/10/16 02:18:50;;;;;;;1.80;1.30;;;;;;;;;;1035524;28;20182;-79
2022/10/16 02:19:22;;;;;;;2.75;1.80;;;;;;;;;;1037772;28;20076;-79
2022/10/16 02:19:54;;;;;;;2.35;1.40;;;;;;;;;;1042905;28;20051;-79
2022/10/16 02:20:27;;;;;;;4.07;1.50;;;;;;;;;;1038219;28;20025;-79
2022/10/16 02:21:07;;;;;;;3.65;1.88;;;;;;;;;;1034521;28;20096;-79
2022/10/16 02:21:49;;;;;;;4.22;2.30;;;;;;;;;;1030418;28;20410;-79
2022/10/16 02:22:26;;;;;;;3.38;1.50;;;;;;;;;;1030679;28;20062;-79
2022/10/16 02:22:58;;;;;;;2.40;1.75;;;;;;;;;;1034357;28;20028;-79
2022/10/16 02:23:37;;;;;;;2.40;1.60;;;;;;;;;;1033089;28;20030;-80
2022/10/16 02:24:17;;;;;;;4.47;1.55;;;;;;;;;;1034623;28;20105;-80
2022/10/16 02:24:57;;;;;;;2.38;1.50;;;;;;;;;;1035162;28;20030;-80
2022/10/16 02:25:32;;;;;;;3.17;1.98;;;;;;;;;;1034425;28;20068;-80
2022/10/16 02:26:04;;;;;;;2.22;1.58;;;;;;;;;;1035798;28;20825;-80
2022/10/16 02:26:43;;;;;;;3.90;1.88;;;;;;;;;;1036433;28;20817;-80
2022/10/16 02:27:18;;;;;;;2.45;1.40;;;;;;;;;;1028544;28;20022;-79
2022/10/16 02:27:49;;;;;;;4.40;1.77;;;;;;;;;;1030698;28;20023;-80
2022/10/16 02:28:25;;;;;;;3.00;1.35;;;;;;;;;;1036758;28;20065;-80
2022/10/16 02:28:58;;;;;;;4.57;2.05;;;;;;;;;;1038758;28;20036;-80
2022/10/16 02:29:29;;;;;;;3.10;1.65;;;;;;;;;;1037647;28;20499;-78
2022/10/16 02:30:07;;;;;;;5.15;1.88;;;;;;;;;;1035141;28;20440;-80
2022/10/16 02:30:41;;;;;;;2.70;1.67;;;;;;;;;;1035340;28;20431;-80
2022/10/16 02:31:13;;;;;;;1.75;1.50;;;;;;;;;;1034285;28;20026;-80
2022/10/16 02:31:47;;;;;;;1.92;1.50;;;;;;;;;;1034550;28;20049;-80
2022/10/16 02:32:20;;;;;;;7.05;2.20;;;;;;;;;;1035115;28;20424;-80
2022/10/16 02:32:52;;;;;;;2.63;1.65;;;;;;;;;;1035714;28;20026;-80
2022/10/16 02:33:25;;;;;;;3.20;1.92;;;;;;;;;;1038530;28;20025;-80
2022/10/16 02:33:58;;;;;;;4.90;1.88;;;;;;;;;;1038608;28;20022;-80
2022/10/16 02:34:32;;;;;;;2.40;1.38;;;;;;;;;;1037516;28;20036;-80
2022/10/16 02:35:03;;;;;;;3.22;1.48;;;;;;;;;;1039297;28;20148;-80
2022/10/16 02:35:34;;;;;;;2.55;1.42;;;;;;;;;;1038714;28;20013;-80
2022/10/16 02:36:06;;;;;;;4.35;1.67;;;;;;;;;;1038623;28;20428;-80
2022/10/16 02:36:37;;;;;;;2.03;1.55;;;;;;;;;;1038790;28;20026;-80
2022/10/16 02:37:10;;;;;;;2.13;1.30;;;;;;;;;;1038785;28;20063;-78
2022/10/16 02:37:41;;;;;;;4.07;1.73;;;;;;;;;;1034693;28;20113;-80
2022/10/16 02:38:13;;;;;;;4.28;1.38;;;;;;;;;;1031380;28;20084;-79
2022/10/16 02:38:44;;;;;;;2.10;1.55;;;;;;;;;;1030480;28;20562;-80
2022/10/16 02:39:15;;;;;;;3.28;1.40;;;;;;;;;;1030910;28;20026;-79
2022/10/16 02:39:46;;;;;;;3.72;1.80;;;;;;;;;;1031313;28;20032;-80
2022/10/16 02:40:17;;;;;;;3.83;1.77;;;;;;;;;;1034940;28;20030;-79
2022/10/16 02:40:49;;;;;;;5.18;1.83;;;;;;;;;;1038616;28;20339;-79
2022/10/16 02:41:21;;;;;;;3.72;1.67;;;;;;;;;;1038235;28;20127;-79
2022/10/16 02:41:52;;;;;;;2.60;1.80;;;;;;;;;;1040255;28;20028;-79
2022/10/16 02:42:28;;;;;;;2.38;1.50;;;;;;;;;;1043445;28;20024;-79
2022/10/16 02:42:59;;;;;;;1.98;1.20;;;;;;;;;;1038544;28;20021;-78
2022/10/16 02:43:30;;;;;;;3.78;1.50;;;;;;;;;;1038441;28;20017;-79
2022/10/16 02:44:01;;;;;;;3.42;1.67;;;;;;;;;;1038577;28;20028;-80
2022/10/16 02:44:32;;;;;;;3.28;1.48;;;;;;;;;;1034542;28;20021;-79
2022/10/16 02:45:03;;;;;;;2.55;1.50;;;;;;;;;;1039076;28;20017;-79
2022/10/16 02:45:34;;;;;;;2.20;1.55;;;;;;;;;;1038635;28;20018;-79
2022/10/16 02:46:05;;;;;;;2.38;1.65;;;;;;;;;;1034674;28;20029;-79
2022/10/16 02:46:36;;;;;;;3.60;1.90;;;;;;;;;;1038657;28;20037;-79
2022/10/16 02:47:07;;;;;;;3.08;2.47;;;;;;;;;;1034227;28;20017;-79
2022/10/16 02:47:38;;;;;;;4.18;1.92;;;;;;;;;;1035560;28;20014;-79
2022/10/16 02:48:09;;;;;;;2.22;1.05;;;;;;;;;;1034782;28;20026;-80
2022/10/16 02:48:40;;;;;;;3.05;2.05;;;;;;;;;;1037279;28;20018;-80
2022/10/16 02:49:11;;;;;;;3.85;1.52;;;;;;;;;;1038368;28;20380;-80
2022/10/16 02:49:42;;;;;;;5.22;1.10;;;;;;;;;;1038648;28;20404;-80
2022/10/16 02:50:13;;;;;;;2.40;1.60;;;;;;;;;;1039296;28;20100;-80
2022/10/16 02:50:44;;;;;;;5.80;1.88;;;;;;;;;;1038890;28;20048;-80
2022/10/16 02:51:15;;;;;;;2.88;1.60;;;;;;;;;;1038759;28;20017;-79
2022/10/16 02:51:46;;;;;;;1.75;1.23;;;;;;;;;;1038804;28;20707;-79
2022/10/16 02:52:17;;;;;;;2.20;1.63;;;;;;;;;;1038914;28;20055;-79
2022/10/16 02:52:48;;;;;;;3.92;1.83;;;;;;;;;;1039744;28;20009;-80
2022/10/16 02:53:19;;;;;;;2.97;1.33;;;;;;;;;;1039158;28;20406;-80
2022/10/16 02:53:50;;;;;;;1.42;1.20;;;;;;;;;;1039380;28;20673;-80
2022/10/16 02:54:21;;;;;;;1.92;1.48;;;;;;;;;;1039243;28;20022;-80
2022/10/16 02:54:52;;;;;;;2.42;1.65;;;;;;;;;;1035633;28;20010;-80
2022/10/16 02:55:22;;;;;;;3.40;1.60;;;;;;;;;;1043718;28;20016;-79
2022/10/16 02:55:53;;;;;;;1.73;1.45;;;;;;;;;;1043563;28;20013;-79
2022/10/16 02:56:24;;;;;;;2.50;1.60;;;;;;;;;;1043374;28;20084;-80
2022/10/16 02:56:55;;;;;;;2.47;1.30;;;;;;;;;;1040774;28;20018;-79
2022/10/16 02:57:26;;;;;;;2.35;1.35;;;;;;;;;;1039108;28;20079;-80
2022/10/16 02:57:57;;;;;;;1.85;1.40;;;;;;;;;;1040080;28;20041;-80
2022/10/16 02:58:28;;;;;;;1.83;1.40;;;;;;;;;;1039019;28;20029;-80
2022/10/16 02:58:59;;;;;;;3.00;1.30;;;;;;;;;;1039495;28;20500;-80
2022/10/16 02:59:30;;;;;;;2.95;1.65;;;;;;;;;;1039119;28;20013;-80
2022/10/16 03:00:01;;;;;;;1.80;1.27;;;;;;;;;;1039139;28;20427;-79
2022/10/16 03:00:32;;;;;;;2.63;1.80;;;;;;;;;;1035842;28;20018;-80
2022/10/16 03:01:03;;;;;;;2.60;1.50;;;;;;;;;;1031303;28;20021;-80
2022/10/16 03:01:34;;;;;;;2.63;1.48;;;;;;;;;;1031192;28;20719;-80
2022/10/16 03:02:05;;;;;;;2.97;1.50;;;;;;;;;;1033924;28;20034;-80
2022/10/16 03:02:36;;;;;;;3.33;1.60;;;;;;;;;;1034758;28;20030;-79
2022/10/16 03:03:07;;;;;;;2.03;1.38;;;;;;;;;;1036353;28;20088;-80
2022/10/16 03:03:38;;;;;;;4.30;1.33;;;;;;;;;;1041204;28;20029;-80
2022/10/16 03:04:09;;;;;;;2.25;1.50;;;;;;;;;;1038745;28;20504;-80
2022/10/16 03:04:40;;;;;;;1.42;1.20;;;;;;;;;;1036910;28;20473;-80
2022/10/16 03:05:11;;;;;;;2.13;1.15;;;;;;;;;;1039877;28;20413;-80
2022/10/16 03:05:43;;;;;;;2.83;1.70;;;;;;;;;;1044051;28;20036;-79
2022/10/16 03:06:14;;;;;;;3.40;2.05;;;;;;;;;;1043902;28;20053;-80
2022/10/16 03:06:45;;;;;;;2.55;1.42;;;;;;;;;;1043421;28;20032;-80
2022/10/16 03:07:16;;;;;;;3.08;1.70;;;;;;;;;;1038975;28;20117;-80
2022/10/16 03:07:47;;;;;;;2.78;1.70;;;;;;;;;;1039112;28;20063;-79
2022/10/16 03:08:23;;;;;;;2.53;1.60;;;;;;;;;;1040321;28;20028;-80
2022/10/16 03:08:54;;;;;;;1.50;1.00;;;;;;;;;;1035832;28;20014;-80
2022/10/16 03:09:25;;;;;;;1.55;1.00;;;;;;;;;;1036150;28;20057;-80
2022/10/16 03:09:55;;;;;;;4.10;1.60;;;;;;;;;;1034773;28;20111;-80
2022/10/16 03:10:27;;;;;;;3.13;1.58;;;;;;;;;;1035825;28;20060;-80
2022/10/16 03:10:58;;;;;;;2.88;1.25;;;;;;;;;;1035180;28;20029;-80
2022/10/16 03:11:29;;;;;;;3.00;1.50;;;;;;;;;;1035498;28;20025;-80
2022/10/16 03:12:00;;;;;;;2.38;1.40;;;;;;;;;;1039098;28;20022;-80
2022/10/16 03:12:31;;;;;;;3.03;1.98;;;;;;;;;;1039497;28;20032;-80
2022/10/16 03:13:02;;;;;;;2.95;1.92;;;;;;;;;;1039802;28;20021;-80
2022/10/16 03:13:33;;;;;;;1.63;1.10;;;;;;;;;;1039480;28;20094;-80
2022/10/16 03:14:04;;;;;;;5.07;1.80;;;;;;;;;;1039145;28;20024;-80
2022/10/16 03:14:35;;;;;;;3.72;1.35;;;;;;;;;;1039252;28;20958;-79
2022/10/16 03:15:06;;;;;;;3.67;1.85;;;;;;;;;;1038929;28;20157;-80
2022/10/16 03:15:37;;;;;;;2.60;1.20;;;;;;;;;;1036039;28;20076;-80
2022/10/16 03:16:08;;;;;;;1.90;1.45;;;;;;;;;;1035131;28;20077;-80
2022/10/16 03:16:39;;;;;;;3.45;1.35;;;;;;;;;;1035315;28;20513;-80
2022/10/16 03:17:10;;;;;;;3.63;1.83;;;;;;;;;;1036249;28;20126;-80
2022/10/16 03:17:41;;;;;;;6.30;1.52;;;;;;;;;;1035557;28;20109;-80
2022/10/16 03:18:13;;;;;;;3.33;1.70;;;;;;;;;;1040149;28;20022;-80
2022/10/16 03:18:44;;;;;;;6.43;1.95;;;;;;;;;;1036140;28;20036;-79
2022/10/16 03:19:17;;;;;;;3.05;1.60;;;;;;;;;;1035168;28;20014;-80